Racecast

Jaylon Sanders

West Rowan (NC) · 12 · SPCNC D5AROWAN · Compare head to head

Athlete rating
Races 82
Seasons 4 2013 — 2016
Speed rating — all races

Track & Field

TF speed rating

2016 TF

West Rowan (NC) · Grade 12

Date Meet Event Result Place Rating Difficulty PR/SR Flags
2016-05-20 NCHSAA 3A State Championships 200m 22.25 7th · 1st on team -0.038 ★PR SR
2016-05-20 NCHSAA 3A State Championships 400m 49.46 3rd · 1st on team -0.038
2016-05-14 NCHSAA 3A Midwest Region 200m 22.57 3rd · 1st on team -0.025
2016-05-14 NCHSAA 3A Midwest Region 400m 49.08 1st · 1st on team -0.025 ★PR SR
2016-05-05 SPC Championships 200m 22.7 1st · 1st on team -0.025
2016-05-05 SPC Championships 200m 22.99 4th · 2nd on team -0.025
2016-05-05 SPC Championships 400m 51.31 2nd · 2nd on team -0.025
2016-05-05 SPC Championships 100m 11.27 4th · 2nd on team -0.025
2016-05-05 SPC Championships 100m 11.07 2nd · 1st on team -0.025 ★PR SR
2016-05-05 SPC Championships 400m 50.76 1st · 1st on team -0.025
2016-04-19 Rowan County Championship 200m 22.45 1st · 1st on team -0.025
2016-04-19 Rowan County Championship 400m 49.97 1st · 1st on team -0.025
2016-04-19 Rowan County Championship 100m 11.25 1st · 1st on team -0.025
2016-04-13 East Rowan Meet #6 100m 11.09 1st · 1st on team -0.025 PR SR
2016-04-13 East Rowan Meet #6 400m 50.13 1st · 1st on team -0.025
2016-04-13 East Rowan Meet #6 200m 22.79 1st · 1st on team -0.025
2016-03-22 East Rowan Meet #4 100m 11.43 1st · 1st on team -0.025
2016-03-22 East Rowan Meet #4 200m 22.56 1st · 1st on team -0.025
2016-03-22 East Rowan Meet #4 400m 50.19 1st · 1st on team -0.025
2016-03-17 West Rowan 2 100m 11.25 1st · 1st on team -0.015 SR
2016-03-17 West Rowan 2 400m 50.56 1st · 1st on team -0.015
2016-03-17 West Rowan 2 200m 23.19 1st · 1st on team -0.015
2016-03-13 New Balance Nationals Indoor 400m 50.33 22nd · 1st on team -0.041
2016-03-13 New Balance Nationals Indoor 200m 22.41 15th · 1st on team -0.041 PR SR
2016-03-10 West Rowan 100m 12.09 8th · 2nd on team -0.015 SR
2016-02-12 NCHSAA 3A Indoor State Championships 55m 6.54 4th · 1st on team -0.039
2016-02-12 NCHSAA 3A Indoor State Championships 500m 1:05.84 1st · 1st on team -0.039 ★PR SR
2016-02-12 NCHSAA 3A Indoor State Championships 300m 35.4 1st · 1st on team -0.039
2016-02-06 David Oliver Classic 400m 49.93 1st · 1st on team -0.039 SR
2016-02-06 David Oliver Classic 300m 36.14 3rd · 1st on team -0.039
2016-02-05 Rowan Winter Arctic 6 Indoor Meet 55m 6.55 1st · 1st on team -0.017
2016-01-30 UNC Eastern Challenge 300m 35.39 3rd · 1st on team -0.036 ★PR SR
2016-01-30 UNC Eastern Challenge 500m 1:08.47 5th · 1st on team -0.036
2016-01-09 JDL Mini Meet #3 500m 1:07.69 4th · 1st on team -0.039 PR SR
2016-01-09 JDL Mini Meet #3 300m 35.41 1st · 1st on team -0.039 PR SR
2015-12-19 NCRunners Holiday Invitational 55m 6.7 22nd · 1st on team -0.039
2015-12-19 NCRunners Holiday Invitational 300m 35.57 2nd · 1st on team -0.039 PR SR
2015-12-16 West Rowan Arctic Fox # 3 300m 42.53 5th · 1st on team -0.017
2015-12-16 West Rowan Arctic Fox # 3 55m 6.31 1st · 1st on team -0.017 ★PR SR
2015-12-09 East Rowan Polar Bear #2 55m 6.34 1st · 1st on team -0.029 SR
2015-12-09 East Rowan Polar Bear #2 300m 35.64 1st · 1st on team -0.029 PR SR

2015 TF

West Rowan (NC) · Grade 11

Date Meet Event Result Place Rating Difficulty PR/SR Flags
2015-05-08 NCHSAA 3A State Championship 400m 49.66 5th · 1st on team -0.038
2015-05-02 3A Midwest Regional Meet 400m 50.85 4th · 1st on team -0.042
2015-04-22 SPC Championships 100m 11.27 5th · 2nd on team -0.025
2015-04-22 SPC Championships 200m 22.5 3rd · 1st on team -0.025
2015-04-22 SPC Championships 100m 11.35 8th · 4th on team -0.025
2015-04-22 SPC Championships 200m 22.73 5th · 2nd on team -0.025
2015-04-22 SPC Championships 400m 52.4 4th · 2nd on team -0.025
2015-04-22 SPC Championships 400m 49.83 1st · 1st on team -0.025
2015-04-14 Rowan County Championsips 200m 22.6 1st · 1st on team -0.025
2015-04-14 Rowan County Championsips 100m 11.26 1st · 1st on team -0.025
2015-04-14 Rowan County Championsips 400m 49.19 1st · 1st on team -0.025 PR SR
2015-03-24 East Rowan #3- WR, CC, HR, CM 100m 11.54 3rd · 1st on team -0.025
2015-03-24 East Rowan #3- WR, CC, HR, CM 200m 22.44 1st · 1st on team -0.025 PR SR
2015-03-19 Er,hr,nwc 100m 11.24 2nd · 1st on team -0.015 PR SR
2015-03-19 Er,hr,nwc 200m 22.74 2nd · 1st on team -0.015 PR SR
2015-03-19 Er,hr,nwc 400m 50.14 1st · 1st on team -0.015 PR SR
2015-03-12 Con,CM, 100m 11.54 2nd · 1st on team -0.015 SR
2015-03-12 Con,CM, 400m 51.34 1st · 1st on team -0.015 PR SR
2015-03-12 Con,CM, 200m 23.44 1st · 1st on team -0.015 PR SR
2015-02-14 NCHSAA 3A Indoor State Championships 55m 6.7 15th · 2nd on team -0.039
2015-02-14 NCHSAA 3A Indoor State Championships 55m 6.68 13th · 1st on team -0.039
2015-01-24 JDL HS Invitational 55m 6.79 23rd · 1st on team -0.039
2015-01-24 JDL HS Invitational 300m 36.33 6th · 1st on team -0.039 PR SR
2015-01-21 East Rowan Polar Bear Makeup 55m 6.34 1st · 1st on team -0.029 PR SR
2015-01-21 East Rowan Polar Bear Makeup 300m 37.05 1st · 1st on team -0.029
2015-01-16 JDL Mini Meet Section 1 300m 36.74 3rd · 1st on team -0.039 PR SR
2014-12-17 East Rowan Polar Bear #3 55m 6.5 4th · 3rd on team -0.029 PR SR
2014-12-03 East Rowan Polar Bear #1 55m 6.64 2nd · 1st on team -0.029 PR SR
2014-12-03 East Rowan Polar Bear #1 300m 36.84 1st · 1st on team -0.029 PR SR

2014 TF

West Rowan (NC) · Grade 10

Date Meet Event Result Place Rating Difficulty PR/SR Flags
2014-04-01 Rowan County Championships 200m 23.46 4th · 2nd on team -0.025 PR SR
2014-03-26 Con,SR,Car,ER,WR 100m 11.64 5th · 3rd on team -0.015
2014-03-05 Nr,dc,alb,wr 100m 11.54 1st · 1st on team -0.015 PR SR
2014-03-05 Nr,dc,alb,wr 200m 23.84 1st · 1st on team -0.015 PR SR
2014-01-27 East Rowan Makeups 55m 6.74 2nd · 1st on team -0.029 PR SR
2014-01-27 East Rowan Makeups 300m 37.24 1st · 1st on team -0.029 PR SR
2014-01-11 Durham Striders Invitational 300m 37.46 23rd · 1st on team -0.036
2014-01-11 Durham Striders Invitational 55m 6.82 34th · 1st on team -0.036 PR SR
2013-12-18 East Rowan Polar Bear #3 55m 6.84 2nd · 1st on team -0.029 PR SR
2013-12-18 East Rowan Polar Bear #3 300m 37.44 1st · 1st on team -0.029 PR SR

2013 TF

West Rowan (NC) · Grade 9

Date Meet Event Result Place Rating Difficulty PR/SR Flags
2013-03-14 East Rowan/West Iredell/Carson/West Rowan 200m 25.24 8th · 2nd on team -0.025 PR SR
2013-03-14 East Rowan/West Iredell/Carson/West Rowan 100m 12.34 6th · 2nd on team -0.025 PR SR